createdAt,value
2024-01-16T00:00:00.806Z,3.27
2024-01-16T00:02:28.204Z,5.83
2024-01-16T00:04:54.525Z,3.90
2024-01-16T00:07:20.860Z,4.60
2024-01-16T00:09:47.842Z,5.43
2024-01-16T00:12:14.183Z,3.27
2024-01-16T00:14:40.534Z,5.80
2024-01-16T00:17:06.969Z,7.20
2024-01-16T00:19:33.349Z,6.60
2024-01-16T00:22:01.322Z,3.03
2024-01-16T00:24:27.682Z,3.47
2024-01-16T00:26:54.063Z,6.03
2024-01-16T00:29:20.534Z,4.20
2024-01-16T00:31:46.850Z,4.67
2024-01-16T00:34:13.202Z,5.90
2024-01-16T00:36:39.530Z,6.70
2024-01-16T00:39:05.865Z,3.50
2024-01-16T00:41:32.261Z,3.67
2024-01-16T00:43:58.604Z,4.50
2024-01-16T00:46:24.872Z,4.27
2024-01-16T00:48:52.174Z,3.37
2024-01-16T00:51:18.530Z,5.37
2024-01-16T00:53:45.152Z,3.80
2024-01-16T00:56:11.625Z,6.93
2024-01-16T00:58:38.865Z,3.00
2024-01-16T01:01:05.391Z,4.17
2024-01-16T01:03:31.794Z,2.40
2024-01-16T01:05:58.323Z,3.53
2024-01-16T01:08:24.779Z,5.43
2024-01-16T01:10:51.116Z,4.50
2024-01-16T01:13:17.491Z,3.30
2024-01-16T01:15:43.777Z,3.80
2024-01-16T01:18:10.574Z,8.13
2024-01-16T01:20:37.189Z,3.27
2024-01-16T01:23:03.585Z,4.10
2024-01-16T01:25:29.939Z,2.13
2024-01-16T01:27:59.432Z,2.20
2024-01-16T01:30:25.817Z,3.83
2024-01-16T01:32:52.291Z,1.83
2024-01-16T01:35:20.803Z,3.63
2024-01-16T01:37:47.178Z,3.70
2024-01-16T01:40:14.324Z,1.73
2024-01-16T01:42:41.737Z,5.30
2024-01-16T01:45:08.460Z,4.00
2024-01-16T01:47:34.806Z,3.00
2024-01-16T01:50:02.161Z,6.53
2024-01-16T01:52:28.513Z,2.07
2024-01-16T01:54:54.852Z,4.40
2024-01-16T01:57:26.354Z,3.33
2024-01-16T01:59:52.681Z,2.30
2024-01-16T02:02:19.922Z,3.97
2024-01-16T02:04:48.074Z,5.30
2024-01-16T02:07:15.408Z,3.87
2024-01-16T02:09:41.736Z,2.93
2024-01-16T02:12:08.422Z,4.27
2024-01-16T02:14:34.765Z,3.40
2024-01-16T02:17:01.076Z,2.33
2024-01-16T02:19:27.498Z,2.63
2024-01-16T02:21:55.737Z,3.97
2024-01-16T02:24:22.291Z,3.97
2024-01-16T02:26:48.862Z,4.97
2024-01-16T02:29:17.349Z,4.23
2024-01-16T02:31:44.536Z,3.53
2024-01-16T02:34:10.903Z,2.67
2024-01-16T02:36:37.906Z,3.23
2024-01-16T02:39:04.223Z,2.97
2024-01-16T02:41:30.712Z,5.43
2024-01-16T02:43:57.022Z,3.97
2024-01-16T02:46:23.302Z,5.47
2024-01-16T02:48:49.853Z,2.90
2024-01-16T02:51:16.883Z,3.43
2024-01-16T02:53:43.257Z,3.30
2024-01-16T02:56:10.149Z,6.30
2024-01-16T02:58:36.538Z,3.90
2024-01-16T03:01:02.904Z,3.63
2024-01-16T03:03:29.425Z,3.53
2024-01-16T03:05:57.382Z,3.50
2024-01-16T03:08:23.921Z,4.47
2024-01-16T03:10:50.707Z,5.03
2024-01-16T03:13:16.989Z,2.87
2024-01-16T03:15:43.295Z,4.07
2024-01-16T03:18:09.826Z,3.03
2024-01-16T03:20:36.373Z,3.47
2024-01-16T03:23:02.780Z,2.13
2024-01-16T03:25:29.060Z,3.00
2024-01-16T03:27:55.588Z,3.47
2024-01-16T03:30:23.166Z,6.33
2024-01-16T03:32:49.897Z,3.10
2024-01-16T03:35:16.259Z,4.50
2024-01-16T03:37:42.549Z,3.27
2024-01-16T03:40:09.342Z,4.03
2024-01-16T03:42:35.623Z,3.33
2024-01-16T03:45:01.906Z,2.97
2024-01-16T03:47:28.297Z,6.33
2024-01-16T03:49:54.606Z,4.23
2024-01-16T03:52:20.895Z,2.73
2024-01-16T03:54:47.242Z,3.87
2024-01-16T03:57:13.596Z,7.53
2024-01-16T03:59:40.045Z,3.03
2024-01-16T04:02:06.390Z,3.47
2024-01-16T04:04:32.676Z,3.07
2024-01-16T04:06:58.941Z,4.30
2024-01-16T04:09:25.470Z,3.53
2024-01-16T04:11:51.875Z,6.87
2024-01-16T04:14:18.271Z,5.57
2024-01-16T04:16:44.616Z,4.90
2024-01-16T04:19:10.980Z,4.37
2024-01-16T04:21:37.628Z,5.77
2024-01-16T04:24:04.032Z,5.17
2024-01-16T04:26:30.346Z,6.87
2024-01-16T04:29:01.860Z,3.73
2024-01-16T04:31:28.377Z,5.93
2024-01-16T04:33:54.759Z,5.30
2024-01-16T04:36:21.161Z,6.63
2024-01-16T04:38:47.538Z,6.10
2024-01-16T04:41:13.889Z,5.50
2024-01-16T04:43:40.260Z,4.27
2024-01-16T04:46:06.626Z,5.30
2024-01-16T04:48:32.985Z,4.67
2024-01-16T04:50:59.354Z,4.53
2024-01-16T04:53:25.749Z,3.67
2024-01-16T04:55:52.409Z,4.77
2024-01-16T04:58:19.788Z,7.50
2024-01-16T05:00:46.962Z,5.90
2024-01-16T05:03:13.377Z,5.33
2024-01-16T05:05:39.774Z,5.83
2024-01-16T05:08:06.285Z,4.67
2024-01-16T05:10:32.717Z,4.63
2024-01-16T05:12:59.061Z,3.93
2024-01-16T05:15:25.361Z,4.60
2024-01-16T05:17:51.825Z,4.07
2024-01-16T05:20:18.266Z,4.10
2024-01-16T05:22:44.576Z,4.00
2024-01-16T05:25:11.010Z,3.53
2024-01-16T05:27:37.457Z,3.90
2024-01-16T05:30:04.308Z,4.43
2024-01-16T05:32:30.748Z,4.57
2024-01-16T05:34:57.087Z,2.43
2024-01-16T05:37:23.378Z,4.23
2024-01-16T05:42:16.794Z,5.03
2024-01-16T05:44:43.201Z,2.50
2024-01-16T05:47:09.998Z,8.00
2024-01-16T05:49:36.982Z,6.60
2024-01-16T05:52:03.399Z,8.87
2024-01-16T05:54:30.049Z,4.00
2024-01-16T05:56:56.483Z,4.13
2024-01-16T05:59:22.820Z,5.90
2024-01-16T06:01:50.286Z,5.63
2024-01-16T06:04:16.971Z,4.30
2024-01-16T06:06:48.717Z,6.10
2024-01-16T06:09:15.512Z,3.90
2024-01-16T06:11:42.123Z,6.43
2024-01-16T06:14:08.863Z,6.40
2024-01-16T06:16:35.152Z,5.90
2024-01-16T06:19:01.525Z,6.53
2024-01-16T06:21:28.362Z,7.37
2024-01-16T06:23:54.675Z,4.50
2024-01-16T06:26:21.000Z,3.97
2024-01-16T06:28:47.365Z,7.00
2024-01-16T06:31:13.813Z,4.27
2024-01-16T06:33:40.260Z,5.67
2024-01-16T06:36:06.993Z,6.67
2024-01-16T06:38:33.399Z,6.37
2024-01-16T06:40:59.802Z,4.87
2024-01-16T06:43:26.090Z,3.87
2024-01-16T06:45:52.385Z,6.60
2024-01-16T06:48:18.823Z,4.97
2024-01-16T06:50:45.334Z,4.30
2024-01-16T06:53:12.137Z,7.73
2024-01-16T06:55:39.694Z,7.83
2024-01-16T06:58:06.124Z,5.13
2024-01-16T07:00:32.718Z,7.00
2024-01-16T07:02:59.252Z,6.83
2024-01-16T07:05:25.733Z,5.43
2024-01-16T07:07:52.073Z,5.37
2024-01-16T07:10:23.270Z,6.17
2024-01-16T07:12:50.636Z,4.23
2024-01-16T07:15:16.913Z,7.13
2024-01-16T07:17:43.313Z,4.57
2024-01-16T07:20:09.973Z,4.80
2024-01-16T07:22:37.898Z,7.17
2024-01-16T07:25:04.466Z,5.87
2024-01-16T07:27:30.757Z,4.13
2024-01-16T07:29:57.962Z,9.97
2024-01-16T07:32:24.364Z,7.97
2024-01-16T07:34:52.435Z,5.07
2024-01-16T07:37:18.852Z,5.73
2024-01-16T07:39:45.153Z,9.20
2024-01-16T07:42:11.915Z,5.03
2024-01-16T07:44:38.245Z,7.43
2024-01-16T07:47:04.680Z,8.50
2024-01-16T07:49:30.985Z,5.37
2024-01-16T07:51:57.650Z,5.80
2024-01-16T07:54:25.110Z,6.53
2024-01-16T07:56:51.549Z,7.20
2024-01-16T07:59:18.543Z,7.40
2024-01-16T08:01:45.184Z,7.83
2024-01-16T08:04:11.590Z,6.33
2024-01-16T08:06:38.209Z,6.60
2024-01-16T08:09:04.689Z,5.07
2024-01-16T08:11:32.559Z,6.07
2024-01-16T08:13:58.949Z,7.50
2024-01-16T08:16:26.017Z,7.00
2024-01-16T08:18:52.572Z,5.80
2024-01-16T08:21:19.137Z,5.80
2024-01-16T08:23:45.455Z,9.10
2024-01-16T08:26:11.797Z,6.37
2024-01-16T08:28:38.179Z,7.50
2024-01-16T08:31:05.095Z,6.93
2024-01-16T08:33:37.434Z,6.70
2024-01-16T08:36:09.794Z,7.23
2024-01-16T08:38:36.172Z,7.57
2024-01-16T08:41:02.530Z,7.80
2024-01-16T08:43:28.859Z,6.93
2024-01-16T08:45:55.207Z,9.17
2024-01-16T08:48:21.584Z,7.37
2024-01-16T08:50:48.011Z,7.67
2024-01-16T08:53:14.455Z,9.90
2024-01-16T08:55:40.784Z,8.83
2024-01-16T08:58:07.152Z,7.73
2024-01-16T09:00:34.633Z,6.97
2024-01-16T09:03:04.196Z,8.13
2024-01-16T09:05:31.553Z,9.60
2024-01-16T09:07:58.409Z,21.70
2024-01-16T09:10:24.698Z,14.43
2024-01-16T09:12:50.949Z,9.20
2024-01-16T09:15:17.223Z,8.33
2024-01-16T09:17:43.651Z,8.23
2024-01-16T09:20:10.200Z,10.20
2024-01-16T09:22:36.481Z,8.87
2024-01-16T09:25:02.777Z,7.97
2024-01-16T09:27:29.104Z,8.53
2024-01-16T09:29:55.463Z,8.97
2024-01-16T09:32:21.836Z,7.43
2024-01-16T09:34:48.226Z,7.30
2024-01-16T09:37:15.803Z,7.30
2024-01-16T09:39:42.353Z,7.70
2024-01-16T09:42:08.662Z,8.10
2024-01-16T09:44:35.635Z,10.23
2024-01-16T09:47:02.652Z,10.43
2024-01-16T09:49:30.322Z,8.40
2024-01-16T09:51:56.732Z,10.17
2024-01-16T09:54:23.088Z,11.83
2024-01-16T09:56:53.078Z,10.23
2024-01-16T09:59:20.183Z,10.50
2024-01-16T10:01:46.739Z,10.60
2024-01-16T10:04:13.168Z,8.00
2024-01-16T10:06:40.430Z,11.23
2024-01-16T10:09:10.045Z,21.00
2024-01-16T10:11:36.838Z,19.03
2024-01-16T10:14:03.434Z,14.60
2024-01-16T10:16:48.710Z,12.00
2024-01-16T10:19:14.983Z,12.13
2024-01-16T10:21:41.434Z,11.90
2024-01-16T10:24:14.329Z,14.47
2024-01-16T10:26:40.727Z,9.83
2024-01-16T10:29:07.055Z,11.63
2024-01-16T10:31:33.571Z,7.90
2024-01-16T10:34:00.084Z,7.00
2024-01-16T10:36:26.988Z,6.70
2024-01-16T10:38:58.878Z,7.20
2024-01-16T10:41:28.196Z,10.43
2024-01-16T10:44:10.103Z,6.67
2024-01-16T10:46:36.934Z,10.80
2024-01-16T10:49:04.438Z,7.20
2024-01-16T10:51:31.568Z,6.80
2024-01-16T10:53:59.722Z,7.37
2024-01-16T10:56:28.373Z,6.10
2024-01-16T10:59:06.768Z,6.27
2024-01-16T11:01:33.680Z,6.33
2024-01-16T11:04:02.111Z,4.50
2024-01-16T11:06:28.779Z,7.77
2024-01-16T11:08:55.828Z,6.53
2024-01-16T11:11:23.956Z,5.63
2024-01-16T11:13:51.113Z,5.53
2024-01-16T11:16:17.949Z,8.53
2024-01-16T11:18:44.416Z,6.27
2024-01-16T11:21:16.229Z,10.10
2024-01-16T11:23:46.469Z,11.27
2024-01-16T11:26:25.681Z,9.73
2024-01-16T11:28:52.214Z,10.93
2024-01-16T11:31:34.922Z,10.33
2024-01-16T11:34:02.273Z,7.80
2024-01-16T11:36:47.876Z,8.47
2024-01-16T11:39:21.627Z,5.30
2024-01-16T11:41:55.155Z,7.47
2024-01-16T11:44:37.687Z,11.97
2024-01-16T11:47:07.721Z,9.83
2024-01-16T11:49:34.249Z,9.63
2024-01-16T11:52:00.601Z,9.03
2024-01-16T11:54:26.968Z,13.87
2024-01-16T11:56:59.334Z,9.10
2024-01-16T11:59:45.173Z,9.67
2024-01-16T12:02:15.258Z,11.47
2024-01-16T12:04:41.617Z,8.83
2024-01-16T12:07:08.454Z,10.53
2024-01-16T12:09:34.894Z,8.33
2024-01-16T12:12:04.836Z,10.37
2024-01-16T12:14:31.641Z,9.60
2024-01-16T12:17:12.081Z,12.47
2024-01-16T12:19:41.311Z,10.20
2024-01-16T12:22:09.457Z,12.47
2024-01-16T12:24:35.802Z,9.60
2024-01-16T12:27:02.250Z,10.40
2024-01-16T12:29:28.561Z,9.97
2024-01-16T12:32:05.874Z,13.27
2024-01-16T12:34:32.364Z,12.70
2024-01-16T12:37:11.165Z,11.07
2024-01-16T12:39:38.270Z,8.77
2024-01-16T12:42:04.920Z,9.63
2024-01-16T12:44:31.577Z,9.80
2024-01-16T12:46:58.561Z,12.00
2024-01-16T12:49:25.465Z,11.53
2024-01-16T12:51:51.957Z,10.33
2024-01-16T12:54:20.335Z,9.63
2024-01-16T12:56:47.014Z,7.63
2024-01-16T12:59:13.830Z,8.20
2024-01-16T13:01:41.175Z,8.53
2024-01-16T13:04:08.191Z,10.23
2024-01-16T13:06:35.108Z,8.60
2024-01-16T13:09:12.318Z,10.10
2024-01-16T13:11:46.060Z,9.17
2024-01-16T13:14:12.387Z,11.13
2024-01-16T13:16:38.718Z,8.67
2024-01-16T13:19:06.486Z,5.97
2024-01-16T13:21:32.854Z,10.47
2024-01-16T13:23:59.673Z,8.10
2024-01-16T13:26:25.984Z,9.83
2024-01-16T13:28:52.368Z,8.60
2024-01-16T13:31:18.779Z,9.17
2024-01-16T13:33:45.428Z,11.63
2024-01-16T13:36:12.977Z,7.57
2024-01-16T13:38:39.311Z,8.30
2024-01-16T13:41:05.627Z,15.27
2024-01-16T13:43:31.912Z,11.77
2024-01-16T13:45:58.211Z,8.33
2024-01-16T13:48:24.666Z,12.87
2024-01-16T13:50:51.723Z,9.87
2024-01-16T13:53:18.166Z,7.77
2024-01-16T13:55:44.589Z,7.47
2024-01-16T13:58:11.810Z,7.87
2024-01-16T14:00:38.846Z,9.43
2024-01-16T14:03:06.730Z,6.53
2024-01-16T14:05:33.437Z,9.40
2024-01-16T14:08:00.073Z,6.70
2024-01-16T14:10:26.499Z,9.20
2024-01-16T14:12:52.886Z,9.57
2024-01-16T14:15:21.497Z,8.60
2024-01-16T14:17:48.870Z,6.73
2024-01-16T14:20:16.092Z,6.33
2024-01-16T14:22:42.704Z,7.97
2024-01-16T14:25:12.381Z,11.47
2024-01-16T14:27:45.309Z,7.93
2024-01-16T14:30:12.732Z,9.53
2024-01-16T14:32:43.679Z,10.13
2024-01-16T14:35:10.880Z,8.73
2024-01-16T14:37:37.450Z,8.50
2024-01-16T14:40:07.856Z,5.87
2024-01-16T14:42:35.272Z,11.97
2024-01-16T14:45:01.858Z,9.63
2024-01-16T14:47:28.983Z,8.90
2024-01-16T14:49:56.053Z,8.57
2024-01-16T14:52:22.935Z,7.10
2024-01-16T14:54:49.291Z,9.63
2024-01-16T14:57:15.662Z,6.10
2024-01-16T14:59:42.028Z,7.73
2024-01-16T15:02:13.887Z,15.53
2024-01-16T15:04:47.145Z,14.13
2024-01-16T15:07:13.933Z,9.70
2024-01-16T15:09:40.985Z,9.67
2024-01-16T15:12:08.104Z,9.23
2024-01-16T15:14:34.991Z,7.03
2024-01-16T15:17:01.676Z,13.90
2024-01-16T15:19:28.309Z,6.03
2024-01-16T15:21:54.696Z,9.70
2024-01-16T15:24:27.501Z,11.67
2024-01-16T15:26:54.580Z,13.53
2024-01-16T15:29:21.005Z,16.93
2024-01-16T15:31:47.861Z,9.53
2024-01-16T15:34:16.891Z,9.30
2024-01-16T15:36:43.708Z,13.47
2024-01-16T15:39:10.112Z,10.20
2024-01-16T15:41:36.516Z,14.13
2024-01-16T15:44:10.232Z,17.77
2024-01-16T15:46:57.238Z,12.13
2024-01-16T15:49:23.511Z,10.50
2024-01-16T15:51:50.127Z,7.60
2024-01-16T15:54:16.692Z,8.77
2024-01-16T15:56:43.208Z,11.47
2024-01-16T15:59:10.862Z,13.07
2024-01-16T16:01:38.167Z,7.40
2024-01-16T16:04:04.950Z,9.53
2024-01-16T16:06:34.866Z,12.17
2024-01-16T16:09:01.883Z,10.47
2024-01-16T16:11:28.230Z,13.23
2024-01-16T16:13:54.543Z,10.80
2024-01-16T16:16:21.682Z,25.87
2024-01-16T16:18:48.201Z,25.23
2024-01-16T16:21:15.168Z,13.20
2024-01-16T16:23:41.511Z,15.23
2024-01-16T16:26:07.835Z,12.87
2024-01-16T16:28:34.168Z,11.30
2024-01-16T16:31:00.815Z,9.87
2024-01-16T16:33:27.318Z,12.60
2024-01-16T16:35:54.243Z,9.30
2024-01-16T16:38:20.887Z,13.47
2024-01-16T16:40:49.117Z,11.37
2024-01-16T16:43:16.130Z,10.67
2024-01-16T16:45:42.452Z,12.50
2024-01-16T16:48:08.852Z,9.50
2024-01-16T16:50:35.257Z,12.03
2024-01-16T16:53:01.557Z,17.67
2024-01-16T16:55:28.745Z,9.83
2024-01-16T16:57:55.049Z,11.97
2024-01-16T17:00:21.440Z,11.90
2024-01-16T17:02:47.820Z,12.13
2024-01-16T17:05:15.425Z,11.37
2024-01-16T17:07:42.128Z,10.87
2024-01-16T17:10:08.583Z,10.97
2024-01-16T17:12:34.849Z,17.57
2024-01-16T17:15:01.249Z,18.53
2024-01-16T17:17:28.221Z,13.27
2024-01-16T17:19:54.597Z,14.63
2024-01-16T17:22:20.896Z,14.40
2024-01-16T17:24:48.698Z,14.77
2024-01-16T17:27:15.098Z,12.07
2024-01-16T17:29:41.505Z,12.20
2024-01-16T17:32:08.824Z,9.50
2024-01-16T17:34:35.248Z,13.27
2024-01-16T17:37:01.614Z,12.93
2024-01-16T17:39:28.987Z,14.60
2024-01-16T17:41:55.408Z,12.30
2024-01-16T17:44:23.349Z,10.57
2024-01-16T17:46:49.722Z,10.67
2024-01-16T17:49:16.100Z,13.63
2024-01-16T17:51:45.923Z,16.90
2024-01-16T17:54:14.007Z,15.43
2024-01-16T17:56:40.336Z,23.57
2024-01-16T17:59:06.695Z,14.47
2024-01-16T18:01:33.983Z,13.47
2024-01-16T18:04:01.376Z,10.10
2024-01-16T18:06:28.231Z,11.77
2024-01-16T18:08:54.718Z,15.53
2024-01-16T18:11:21.160Z,11.37
2024-01-16T18:13:47.592Z,11.37
2024-01-16T18:16:14.897Z,11.60
2024-01-16T18:18:42.069Z,14.87
2024-01-16T18:21:09.080Z,24.17
2024-01-16T18:23:36.443Z,24.13
2024-01-16T18:26:05.407Z,12.17
2024-01-16T18:28:31.953Z,14.77
2024-01-16T18:30:58.326Z,11.20
2024-01-16T18:33:24.780Z,13.90
2024-01-16T18:35:51.475Z,14.50
2024-01-16T18:38:20.517Z,13.13
2024-01-16T18:40:47.472Z,15.73
2024-01-16T18:43:16.027Z,15.33
2024-01-16T18:45:42.708Z,17.43
2024-01-16T18:48:09.600Z,14.20
2024-01-16T18:50:36.003Z,16.03
2024-01-16T18:53:02.655Z,16.47
2024-01-16T18:55:29.110Z,18.57
2024-01-16T18:58:00.842Z,14.50
2024-01-16T19:00:28.715Z,16.10
2024-01-16T19:02:55.190Z,15.20
2024-01-16T19:05:23.028Z,17.83
2024-01-16T19:07:50.874Z,20.67
2024-01-16T19:10:17.556Z,15.27
2024-01-16T19:12:44.601Z,18.43
2024-01-16T19:15:18.033Z,14.17
2024-01-16T19:17:45.924Z,14.20
2024-01-16T19:20:12.449Z,15.50
2024-01-16T19:22:40.175Z,14.93
2024-01-16T19:25:08.345Z,16.20
2024-01-16T19:27:36.081Z,18.03
2024-01-16T19:30:05.835Z,21.87
2024-01-16T19:32:32.397Z,26.37
2024-01-16T19:34:58.788Z,34.17
2024-01-16T19:37:25.119Z,17.27
2024-01-16T19:39:51.410Z,11.13
2024-01-16T19:42:18.254Z,19.50
2024-01-16T19:44:47.253Z,13.37
2024-01-16T19:47:13.611Z,14.47
2024-01-16T19:49:40.073Z,15.50
2024-01-16T19:52:06.999Z,15.57
2024-01-16T19:54:33.588Z,17.20
2024-01-16T19:56:59.954Z,17.80
2024-01-16T19:59:26.505Z,13.93
2024-01-16T20:01:53.263Z,16.47
2024-01-16T20:04:19.591Z,19.97
2024-01-16T20:06:46.264Z,17.07
2024-01-16T20:09:15.124Z,14.73
2024-01-16T20:11:41.452Z,17.97
2024-01-16T20:14:10.657Z,14.03
2024-01-16T20:16:38.344Z,15.90
2024-01-16T20:19:06.950Z,16.57
2024-01-16T20:21:34.329Z,15.90
2024-01-16T20:24:02.350Z,14.50
2024-01-16T20:26:29.184Z,14.40
2024-01-16T20:28:55.597Z,17.30
2024-01-16T20:31:22.005Z,14.50
2024-01-16T20:33:50.462Z,14.33
2024-01-16T20:36:17.602Z,14.90
2024-01-16T20:38:47.240Z,17.20
2024-01-16T20:41:14.621Z,17.20
2024-01-16T20:43:41.129Z,15.50
2024-01-16T20:46:08.819Z,14.07
2024-01-16T20:48:35.468Z,12.10
2024-01-16T20:51:02.329Z,10.43
2024-01-16T20:53:29.428Z,9.23
2024-01-16T20:55:56.201Z,13.10
2024-01-16T20:58:22.972Z,9.47
2024-01-16T21:00:49.577Z,11.77
2024-01-16T21:03:19.699Z,12.05
2024-01-16T21:05:46.414Z,10.80
2024-01-16T21:08:13.113Z,10.93
2024-01-16T21:10:39.741Z,9.10
2024-01-16T21:13:06.280Z,12.43
2024-01-16T21:15:32.658Z,17.10
2024-01-16T21:17:59.343Z,11.27
2024-01-16T21:20:26.367Z,9.57
2024-01-16T21:22:52.956Z,10.60
2024-01-16T21:25:19.645Z,10.93
2024-01-16T21:27:46.446Z,11.80
2024-01-16T21:30:13.135Z,12.70
2024-01-16T21:32:39.555Z,10.63
2024-01-16T21:35:07.667Z,11.60
2024-01-16T21:37:34.062Z,12.20
2024-01-16T21:40:00.343Z,12.80
2024-01-16T21:42:26.792Z,12.57
2024-01-16T21:44:54.385Z,10.93
2024-01-16T21:47:25.200Z,14.47
2024-01-16T21:49:52.781Z,13.13
2024-01-16T21:52:19.875Z,13.03
2024-01-16T21:54:47.961Z,10.40
2024-01-16T21:57:14.343Z,13.13
2024-01-16T21:59:43.202Z,9.73
2024-01-16T22:02:10.905Z,13.70
2024-01-16T22:04:40.334Z,12.97
2024-01-16T22:07:06.631Z,9.43
2024-01-16T22:09:32.955Z,14.40
2024-01-16T22:11:59.626Z,10.17
2024-01-16T22:14:26.255Z,10.57
2024-01-16T22:16:52.866Z,10.50
2024-01-16T22:19:20.101Z,13.50
2024-01-16T22:21:46.398Z,14.13
2024-01-16T22:24:14.185Z,11.20
2024-01-16T22:26:41.384Z,11.43
2024-01-16T22:29:11.212Z,15.00
2024-01-16T22:31:43.764Z,8.33
2024-01-16T22:34:10.359Z,9.37
2024-01-16T22:36:40.991Z,10.07
2024-01-16T22:39:07.526Z,10.50
2024-01-16T22:41:35.250Z,11.63
2024-01-16T22:44:02.593Z,11.13
2024-01-16T22:46:28.869Z,12.37
2024-01-16T22:48:55.736Z,15.67
2024-01-16T22:51:23.205Z,13.27
2024-01-16T22:53:49.556Z,9.73
2024-01-16T22:56:15.919Z,11.40
2024-01-16T22:58:43.098Z,10.03
2024-01-16T23:01:09.779Z,10.43
2024-01-16T23:03:36.296Z,11.83
2024-01-16T23:06:02.683Z,11.30
2024-01-16T23:08:29.052Z,9.57
2024-01-16T23:10:56.123Z,15.17
2024-01-16T23:13:22.784Z,9.83
2024-01-16T23:15:49.171Z,11.60
2024-01-16T23:18:15.711Z,12.53
2024-01-16T23:20:42.123Z,15.43
2024-01-16T23:23:12.865Z,12.60
2024-01-16T23:25:39.515Z,12.43
2024-01-16T23:28:06.342Z,15.00
2024-01-16T23:30:32.659Z,10.20
2024-01-16T23:32:59.112Z,11.73
2024-01-16T23:35:25.471Z,12.97
2024-01-16T23:37:54.525Z,15.17
2024-01-16T23:40:21.091Z,18.90
2024-01-16T23:42:47.421Z,13.63
2024-01-16T23:45:23.609Z,16.03
2024-01-16T23:47:54.562Z,12.60
2024-01-16T23:50:21.191Z,14.33
2024-01-16T23:52:47.612Z,13.37
2024-01-16T23:55:15.835Z,14.40
2024-01-16T23:57:42.564Z,14.67
